EIN59PK EGCC-EIDW
Flight info
| Callsign | EIN59PK |
|---|---|
| Flight time | 0h 40m |
| Altitude | 26000 |
| Route | EKLAD Y53 WAL L10 PENIL M144 BAGSO BAGSO4L |
| Aircraft | A20N/M-SDE2E3FGHIRWXY/LB1 |
Departure
| Time | 2026-05-04 17:24 |
|---|---|
| Airport | Manchester Airport (EGCC) |
Arrival
| Time | 2026-05-04 18:05 |
|---|---|
| Airport | Dublin Airport (EIDW) |
| Time | Latitude | Longitude | Altitude | Speed | Heading |
|---|---|---|---|---|---|
| 2026-05-04 17:01 | 53.35932 | -2.27999 | 233 ft | 0 kts | 277° |
| 2026-05-04 17:08 | 53.35932 | -2.27995 | 232 ft | 2 kts | 277° |
| 2026-05-04 17:09 | 53.35930 | -2.27969 | 235 ft | 2 kts | 276° |
| 2026-05-04 17:09 | 53.35929 | -2.27943 | 236 ft | 2 kts | 270° |
| 2026-05-04 17:09 | 53.35930 | -2.27915 | 237 ft | 4 kts | 263° |
| 2026-05-04 17:10 | 53.35952 | -2.27846 | 235 ft | 4 kts | 221° |
| 2026-05-04 17:10 | 53.35960 | -2.27835 | 235 ft | 0 kts | 195° |
| 2026-05-04 17:14 | 53.35870 | -2.27844 | 232 ft | 11 kts | 174° |
| 2026-05-04 17:14 | 53.35806 | -2.27720 | 232 ft | 19 kts | 129° |
| 2026-05-04 17:14 | 53.35713 | -2.27632 | 235 ft | 1 kts | 156° |
| 2026-05-04 17:15 | 53.35702 | -2.27624 | 233 ft | 4 kts | 154° |
| 2026-05-04 17:15 | 53.35614 | -2.27515 | 233 ft | 11 kts | 140° |
| 2026-05-04 17:16 | 53.35573 | -2.27458 | 233 ft | 0 kts | 140° |
| 2026-05-04 17:16 | 53.35481 | -2.27334 | 240 ft | 8 kts | 140° |
| 2026-05-04 17:17 | 53.35423 | -2.27254 | 236 ft | 15 kts | 140° |
| 2026-05-04 17:17 | 53.35190 | -2.27236 | 234 ft | 14 kts | 190° |
| 2026-05-04 17:18 | 53.35081 | -2.27274 | 233 ft | 18 kts | 192° |
| 2026-05-04 17:18 | 53.34887 | -2.27566 | 234 ft | 22 kts | 234° |
| 2026-05-04 17:19 | 53.34864 | -2.27617 | 231 ft | 0 kts | 231° |
| 2026-05-04 17:19 | 53.34651 | -2.28117 | 231 ft | 10 kts | 218° |
| 2026-05-04 17:20 | 53.34598 | -2.28197 | 231 ft | 0 kts | 243° |
| 2026-05-04 17:20 | 53.34606 | -2.28225 | 236 ft | 7 kts | 316° |
| 2026-05-04 17:20 | 53.34661 | -2.28198 | 233 ft | 12 kts | 25° |
| 2026-05-04 17:21 | 53.34833 | -2.28083 | 233 ft | 13 kts | 21° |
| 2026-05-04 17:21 | 53.34988 | -2.27829 | 232 ft | 17 kts | 50° |
| 2026-05-04 17:22 | 53.35068 | -2.27663 | 232 ft | 18 kts | 51° |
| 2026-05-04 17:22 | 53.35102 | -2.27527 | 234 ft | 12 kts | 115° |
| 2026-05-04 17:23 | 53.35041 | -2.27482 | 232 ft | 0 kts | 173° |
| 2026-05-04 17:23 | 53.35023 | -2.27478 | 232 ft | 8 kts | 173° |
| 2026-05-04 17:24 | 53.34937 | -2.27477 | 233 ft | 15 kts | 208° |
| 2026-05-04 17:24 | 53.33736 | -2.29984 | 866 ft | 159 kts | 232° |
| 2026-05-04 17:25 | 53.33020 | -2.31473 | 1861 ft | 174 kts | 232° |
| 2026-05-04 17:25 | 53.31631 | -2.34919 | 2291 ft | 206 kts | 261° |
| 2026-05-04 17:26 | 53.31975 | -2.40137 | 3333 ft | 258 kts | 283° |
| 2026-05-04 17:26 | 53.31519 | -2.49302 | 4998 ft | 270 kts | 255° |
| 2026-05-04 17:27 | 53.30442 | -2.55293 | 4999 ft | 268 kts | 254° |
| 2026-05-04 17:27 | 53.29334 | -2.61248 | 4998 ft | 268 kts | 254° |
| 2026-05-04 17:28 | 53.28223 | -2.67241 | 5761 ft | 273 kts | 254° |
| 2026-05-04 17:29 | 53.26542 | -2.76317 | 9143 ft | 277 kts | 253° |
| 2026-05-04 17:29 | 53.26696 | -2.86003 | 11202 ft | 323 kts | 301° |
| 2026-05-04 17:30 | 53.31040 | -2.95288 | 13625 ft | 347 kts | 308° |
| 2026-05-04 17:31 | 53.34009 | -3.01726 | 15242 ft | 356 kts | 306° |
| 2026-05-04 17:31 | 53.38547 | -3.11932 | 17557 ft | 372 kts | 306° |
| 2026-05-04 17:32 | 53.41627 | -3.19026 | 18979 ft | 381 kts | 305° |
| 2026-05-04 17:33 | 53.46279 | -3.30020 | 20987 ft | 393 kts | 305° |
| 2026-05-04 17:33 | 53.47873 | -3.33783 | 21642 ft | 397 kts | 306° |
| 2026-05-04 17:34 | 53.52744 | -3.45295 | 23583 ft | 409 kts | 306° |
| 2026-05-04 17:34 | 53.54398 | -3.49213 | 24131 ft | 412 kts | 306° |
| 2026-05-04 17:35 | 53.59421 | -3.61176 | 25709 ft | 422 kts | 304° |
| 2026-05-04 17:35 | 53.61670 | -3.70324 | 26061 ft | 427 kts | 281° |
| 2026-05-04 17:35 | 53.61988 | -3.75300 | 26062 ft | 427 kts | 274° |
| 2026-05-04 17:36 | 53.62175 | -3.80284 | 26065 ft | 426 kts | 274° |
| 2026-05-04 17:36 | 53.62371 | -3.85231 | 25877 ft | 424 kts | 274° |
| 2026-05-04 17:36 | 53.62570 | -3.90169 | 25428 ft | 421 kts | 274° |
| 2026-05-04 17:36 | 53.62767 | -3.95079 | 24877 ft | 418 kts | 274° |
| 2026-05-04 17:37 | 53.62963 | -3.99944 | 24292 ft | 415 kts | 274° |
| 2026-05-04 17:37 | 53.63159 | -4.04777 | 23718 ft | 412 kts | 274° |
| 2026-05-04 17:37 | 53.63348 | -4.09482 | 23096 ft | 408 kts | 274° |
| 2026-05-04 17:37 | 53.63535 | -4.14243 | 22487 ft | 403 kts | 274° |
| 2026-05-04 17:38 | 53.63713 | -4.18937 | 21877 ft | 399 kts | 274° |
| 2026-05-04 17:38 | 53.63885 | -4.23526 | 21270 ft | 396 kts | 274° |
| 2026-05-04 17:38 | 53.64058 | -4.28196 | 20682 ft | 392 kts | 274° |
| 2026-05-04 17:38 | 53.64226 | -4.32768 | 20113 ft | 388 kts | 274° |
| 2026-05-04 17:39 | 53.64561 | -4.41760 | 18987 ft | 381 kts | 274° |
| 2026-05-04 17:39 | 53.64726 | -4.46197 | 18444 ft | 378 kts | 274° |
| 2026-05-04 17:39 | 53.64885 | -4.50578 | 18147 ft | 372 kts | 274° |
| 2026-05-04 17:40 | 53.65041 | -4.54953 | 18066 ft | 376 kts | 274° |
| 2026-05-04 17:40 | 53.65196 | -4.59373 | 18067 ft | 376 kts | 274° |
| 2026-05-04 17:40 | 53.65348 | -4.63770 | 18073 ft | 376 kts | 274° |
| 2026-05-04 17:40 | 53.65499 | -4.68174 | 18070 ft | 376 kts | 274° |
| 2026-05-04 17:41 | 53.65649 | -4.72580 | 18076 ft | 376 kts | 274° |
| 2026-05-04 17:41 | 53.65796 | -4.76972 | 18073 ft | 376 kts | 274° |
| 2026-05-04 17:41 | 53.65941 | -4.81320 | 18073 ft | 376 kts | 274° |
| 2026-05-04 17:41 | 53.66087 | -4.85732 | 18074 ft | 376 kts | 274° |
| 2026-05-04 17:42 | 53.66230 | -4.90137 | 18078 ft | 376 kts | 274° |
| 2026-05-04 17:42 | 53.66372 | -4.94543 | 18074 ft | 376 kts | 274° |
| 2026-05-04 17:42 | 53.66512 | -4.98942 | 18075 ft | 376 kts | 274° |
| 2026-05-04 17:42 | 53.66650 | -5.03353 | 18074 ft | 376 kts | 274° |
| 2026-05-04 17:43 | 53.66788 | -5.07765 | 18076 ft | 376 kts | 274° |
| 2026-05-04 17:43 | 53.66923 | -5.12173 | 18075 ft | 376 kts | 274° |
| 2026-05-04 17:43 | 53.67056 | -5.16582 | 18068 ft | 376 kts | 274° |
| 2026-05-04 17:43 | 53.67187 | -5.20981 | 18066 ft | 376 kts | 274° |
| 2026-05-04 17:44 | 53.67314 | -5.25370 | 18075 ft | 376 kts | 274° |
| 2026-05-04 17:44 | 53.67440 | -5.29755 | 17880 ft | 373 kts | 274° |
| 2026-05-04 17:44 | 53.67563 | -5.34091 | 17692 ft | 364 kts | 274° |
| 2026-05-04 17:44 | 53.67678 | -5.38212 | 17560 ft | 351 kts | 274° |
| 2026-05-04 17:45 | 53.67789 | -5.42235 | 17427 ft | 337 kts | 274° |
| 2026-05-04 17:45 | 53.67893 | -5.46058 | 17300 ft | 324 kts | 274° |
| 2026-05-04 17:45 | 53.67994 | -5.49793 | 17188 ft | 311 kts | 274° |
| 2026-05-04 17:45 | 53.68089 | -5.53367 | 17075 ft | 299 kts | 274° |
| 2026-05-04 17:46 | 53.68181 | -5.56804 | 16958 ft | 287 kts | 274° |
| 2026-05-04 17:46 | 53.68268 | -5.60118 | 16740 ft | 280 kts | 273° |
| 2026-05-04 17:46 | 53.68337 | -5.63393 | 16366 ft | 279 kts | 268° |
| 2026-05-04 17:46 | 53.67890 | -5.66561 | 15981 ft | 279 kts | 244° |
| 2026-05-04 17:47 | 53.66754 | -5.69192 | 15607 ft | 278 kts | 229° |
| 2026-05-04 17:47 | 53.65401 | -5.71509 | 15250 ft | 277 kts | 216° |
| 2026-05-04 17:47 | 53.63642 | -5.72770 | 14881 ft | 277 kts | 188° |
| 2026-05-04 17:47 | 53.61743 | -5.72555 | 14502 ft | 276 kts | 161° |
| 2026-05-04 17:48 | 53.60108 | -5.70908 | 14118 ft | 276 kts | 134° |
| 2026-05-04 17:48 | 53.58932 | -5.68380 | 13755 ft | 275 kts | 124° |
| 2026-05-04 17:48 | 53.57868 | -5.65723 | 13389 ft | 273 kts | 126° |
| 2026-05-04 17:48 | 53.56604 | -5.63356 | 13007 ft | 271 kts | 140° |
| 2026-05-04 17:49 | 53.55064 | -5.61548 | 12634 ft | 269 kts | 149° |
| 2026-05-04 17:49 | 53.53487 | -5.59922 | 12206 ft | 271 kts | 149° |
| 2026-05-04 17:49 | 53.51853 | -5.58246 | 11587 ft | 280 kts | 149° |
| 2026-05-04 17:49 | 53.50156 | -5.56522 | 10930 ft | 290 kts | 151° |
| 2026-05-04 17:50 | 53.48272 | -5.55198 | 10251 ft | 298 kts | 165° |
| 2026-05-04 17:50 | 53.46201 | -5.54547 | 9502 ft | 308 kts | 172° |
| 2026-05-04 17:50 | 53.44060 | -5.53991 | 8752 ft | 315 kts | 172° |
| 2026-05-04 17:50 | 53.41890 | -5.53411 | 8258 ft | 314 kts | 172° |
| 2026-05-04 17:51 | 53.39764 | -5.53103 | 8104 ft | 299 kts | 182° |
| 2026-05-04 17:51 | 53.37721 | -5.53467 | 7645 ft | 296 kts | 193° |
| 2026-05-04 17:51 | 53.35733 | -5.54245 | 7417 ft | 287 kts | 194° |
| 2026-05-04 17:51 | 53.33831 | -5.54979 | 7299 ft | 274 kts | 194° |
| 2026-05-04 17:52 | 53.32017 | -5.55666 | 7192 ft | 262 kts | 194° |
| 2026-05-04 17:52 | 53.30329 | -5.56566 | 7092 ft | 248 kts | 206° |
| 2026-05-04 17:52 | 53.28850 | -5.57931 | 6930 ft | 239 kts | 216° |
| 2026-05-04 17:52 | 53.27505 | -5.59477 | 6646 ft | 237 kts | 216° |
| 2026-05-04 17:53 | 53.26141 | -5.61021 | 6344 ft | 236 kts | 216° |
| 2026-05-04 17:53 | 53.24984 | -5.62907 | 5990 ft | 232 kts | 242° |
| 2026-05-04 17:53 | 53.24576 | -5.65464 | 5626 ft | 230 kts | 273° |
| 2026-05-04 17:53 | 53.25022 | -5.67982 | 5291 ft | 228 kts | 303° |
| 2026-05-04 17:54 | 53.26073 | -5.69919 | 5111 ft | 224 kts | 315° |
| 2026-05-04 17:54 | 53.27183 | -5.71791 | 5068 ft | 227 kts | 314° |
| 2026-05-04 17:54 | 53.28284 | -5.73676 | 5069 ft | 226 kts | 314° |
| 2026-05-04 17:54 | 53.29380 | -5.75567 | 5074 ft | 226 kts | 314° |
| 2026-05-04 17:55 | 53.30473 | -5.77459 | 5074 ft | 226 kts | 314° |
| 2026-05-04 17:55 | 53.31559 | -5.79341 | 4980 ft | 224 kts | 314° |
| 2026-05-04 17:55 | 53.32623 | -5.81188 | 4721 ft | 224 kts | 314° |
| 2026-05-04 17:55 | 53.33714 | -5.83084 | 4431 ft | 223 kts | 314° |
| 2026-05-04 17:56 | 53.34791 | -5.84957 | 4075 ft | 225 kts | 314° |
| 2026-05-04 17:56 | 53.35874 | -5.86841 | 3453 ft | 232 kts | 315° |
| 2026-05-04 17:56 | 53.37017 | -5.88832 | 2647 ft | 243 kts | 315° |
| 2026-05-04 17:56 | 53.38191 | -5.90876 | 2176 ft | 240 kts | 315° |
| 2026-05-04 17:57 | 53.39312 | -5.92829 | 2013 ft | 224 kts | 315° |
| 2026-05-04 17:57 | 53.40163 | -5.94862 | 1999 ft | 205 kts | 294° |
| 2026-05-04 17:57 | 53.40477 | -5.97184 | 2001 ft | 209 kts | 276° |
| 2026-05-04 17:57 | 53.40591 | -5.99565 | 1998 ft | 197 kts | 277° |
| 2026-05-04 17:58 | 53.40704 | -6.01710 | 2010 ft | 184 kts | 277° |
| 2026-05-04 17:58 | 53.40706 | -6.01741 | 2009 ft | 184 kts | 277° |
| 2026-05-04 17:58 | 53.40724 | -6.02064 | 2016 ft | 185 kts | 277° |
| 2026-05-04 18:01 | 53.40777 | -6.03019 | 1964 ft | 172 kts | 278° |
| 2026-05-04 18:01 | 53.40878 | -6.04838 | 2035 ft | 143 kts | 278° |
| 2026-05-04 18:01 | 53.40966 | -6.06391 | 2000 ft | 129 kts | 279° |
| 2026-05-04 18:02 | 53.41170 | -6.09363 | 2005 ft | 126 kts | 279° |
| 2026-05-04 18:02 | 53.41255 | -6.10833 | 1928 ft | 127 kts | 279° |
| 2026-05-04 18:02 | 53.41280 | -6.11288 | 1877 ft | 127 kts | 279° |
| 2026-05-04 18:03 | 53.41356 | -6.12716 | 1717 ft | 126 kts | 278° |
| 2026-05-04 18:03 | 53.41421 | -6.14218 | 1628 ft | 132 kts | 277° |
| 2026-05-04 18:03 | 53.41515 | -6.15757 | 1726 ft | 124 kts | 281° |
| 2026-05-04 18:03 | 53.41561 | -6.17183 | 1465 ft | 125 kts | 273° |
| 2026-05-04 18:04 | 53.41609 | -6.18577 | 1265 ft | 143 kts | 278° |
| 2026-05-04 18:04 | 53.41772 | -6.20204 | 857 ft | 142 kts | 278° |
| 2026-05-04 18:04 | 53.41934 | -6.23343 | 412 ft | 131 kts | 274° |
| 2026-05-04 18:05 | 53.42014 | -6.24878 | 276 ft | 130 kts | 275° |
| 2026-05-04 18:05 | 53.42100 | -6.26316 | 225 ft | 111 kts | 276° |
| 2026-05-04 18:05 | 53.42150 | -6.27287 | 236 ft | 36 kts | 274° |
| 2026-05-04 18:05 | 53.42168 | -6.27629 | 234 ft | 34 kts | 276° |
| 2026-05-04 18:06 | 53.42349 | -6.28006 | 243 ft | 10 kts | 55° |
| 2026-05-04 18:06 | 53.42352 | -6.27905 | 240 ft | 9 kts | 101° |
| 2026-05-04 18:06 | 53.42347 | -6.27762 | 237 ft | 15 kts | 93° |
| 2026-05-04 18:07 | 53.42294 | -6.26826 | 230 ft | 6 kts | 93° |
| 2026-05-04 18:07 | 53.42287 | -6.26605 | 231 ft | 29 kts | 93° |
| 2026-05-04 18:07 | 53.42443 | -6.26230 | 222 ft | 56 kts | 34° |
| 2026-05-04 18:07 | 53.42666 | -6.26071 | 216 ft | 13 kts | 352° |
| 2026-05-04 18:08 | 53.42706 | -6.26081 | 215 ft | 0 kts | 351° |